sensor_id;sensor_type;location;lat;lon;timestamp;pressure;altitude;pressure_sealevel;temperature;humidity
3206;BME280;1615;53.602;11.418;2023-04-05T00:01:22;102143.84;;;2.67;100.00
3206;BME280;1615;53.602;11.418;2023-04-05T00:03:50;102205.94;;;3.21;100.00
3206;BME280;1615;53.602;11.418;2023-04-05T00:06:19;102205.91;;;3.34;100.00
3206;BME280;1615;53.602;11.418;2023-04-05T00:08:46;102193.34;;;3.46;100.00
3206;BME280;1615;53.602;11.418;2023-04-05T00:11:15;102195.25;;;3.52;100.00
3206;BME280;1615;53.602;11.418;2023-04-05T00:13:41;102202.28;;;3.59;100.00
3206;BME280;1615;53.602;11.418;2023-04-05T00:16:06;102194.59;;;3.63;100.00
3206;BME280;1615;53.602;11.418;2023-04-05T00:18:32;102197.31;;;3.63;100.00
3206;BME280;1615;53.602;11.418;2023-04-05T00:20:58;102208.34;;;3.68;100.00
3206;BME280;1615;53.602;11.418;2023-04-05T00:23:23;102192.44;;;3.78;100.00
3206;BME280;1615;53.602;11.418;2023-04-05T00:25:50;102196.97;;;3.90;100.00
3206;BME280;1615;53.602;11.418;2023-04-05T00:28:16;102211.19;;;3.86;100.00
3206;BME280;1615;53.602;11.418;2023-04-05T00:30:41;102204.91;;;3.92;100.00
3206;BME280;1615;53.602;11.418;2023-04-05T00:33:06;102197.84;;;3.78;100.00
3206;BME280;1615;53.602;11.418;2023-04-05T00:35:32;102092.78;;;3.03;100.00
3206;BME280;1615;53.602;11.418;2023-04-05T00:37:57;102202.28;;;3.66;100.00
3206;BME280;1615;53.602;11.418;2023-04-05T00:40:23;102185.63;;;3.56;100.00
3206;BME280;1615;53.602;11.418;2023-04-05T00:42:48;102161.28;;;3.36;100.00
3206;BME280;1615;53.602;11.418;2023-04-05T00:45:14;102200.41;;;3.60;100.00
3206;BME280;1615;53.602;11.418;2023-04-05T00:47:40;102180.84;;;3.58;100.00
3206;BME280;1615;53.602;11.418;2023-04-05T00:50:06;102193.69;;;3.82;100.00
3206;BME280;1615;53.602;11.418;2023-04-05T00:52:34;102179.06;;;3.83;100.00
3206;BME280;1615;53.602;11.418;2023-04-05T00:54:59;102190.75;;;3.90;100.00
3206;BME280;1615;53.602;11.418;2023-04-05T00:57:25;102180.25;;;4.00;100.00
3206;BME280;1615;53.602;11.418;2023-04-05T00:59:50;102140.66;;;3.86;100.00
3206;BME280;1615;53.602;11.418;2023-04-05T01:02:27;102029.41;;;3.17;100.00
3206;BME280;1615;53.602;11.418;2023-04-05T01:04:59;102183.09;;;4.18;100.00
3206;BME280;1615;53.602;11.418;2023-04-05T01:07:37;102182.22;;;4.24;100.00
3206;BME280;1615;53.602;11.418;2023-04-05T01:10:08;102179.09;;;4.27;100.00
3206;BME280;1615;53.602;11.418;2023-04-05T01:12:34;102175.50;;;4.33;100.00
3206;BME280;1615;53.602;11.418;2023-04-05T01:15:03;102090.69;;;3.69;100.00
3206;BME280;1615;53.602;11.418;2023-04-05T01:17:32;102171.34;;;4.24;100.00
3206;BME280;1615;53.602;11.418;2023-04-05T01:20:06;102175.16;;;4.16;100.00
3206;BME280;1615;53.602;11.418;2023-04-05T01:25:53;102169.06;;;4.21;100.00
3206;BME280;1615;53.602;11.418;2023-04-05T01:34:14;102161.09;;;4.26;100.00
3206;BME280;1615;53.602;11.418;2023-04-05T01:36:55;102160.91;;;4.21;100.00
3206;BME280;1615;53.602;11.418;2023-04-05T01:39:22;102158.88;;;4.16;100.00
3206;BME280;1615;53.602;11.418;2023-04-05T01:41:48;102151.13;;;4.20;100.00
3206;BME280;1615;53.602;11.418;2023-04-05T01:44:14;101965.47;;;3.10;100.00
3206;BME280;1615;53.602;11.418;2023-04-05T01:46:39;102152.16;;;4.25;100.00
3206;BME280;1615;53.602;11.418;2023-04-05T01:49:04;102143.16;;;4.25;100.00
3206;BME280;1615;53.602;11.418;2023-04-05T01:51:30;102009.03;;;3.46;100.00
3206;BME280;1615;53.602;11.418;2023-04-05T01:53:55;102141.25;;;4.32;100.00
3206;BME280;1615;53.602;11.418;2023-04-05T01:56:21;102134.13;;;4.31;100.00
3206;BME280;1615;53.602;11.418;2023-04-05T01:58:46;102133.78;;;4.21;100.00
3206;BME280;1615;53.602;11.418;2023-04-05T02:01:11;102127.09;;;4.23;100.00
3206;BME280;1615;53.602;11.418;2023-04-05T02:03:37;102128.78;;;4.24;100.00
3206;BME280;1615;53.602;11.418;2023-04-05T02:06:03;102126.28;;;4.23;100.00
3206;BME280;1615;53.602;11.418;2023-04-05T02:08:28;102119.78;;;4.24;100.00
3206;BME280;1615;53.602;11.418;2023-04-05T02:10:54;102122.94;;;4.21;100.00
3206;BME280;1615;53.602;11.418;2023-04-05T02:13:19;102117.94;;;4.18;100.00
3206;BME280;1615;53.602;11.418;2023-04-05T02:15:48;102120.06;;;4.16;100.00
3206;BME280;1615;53.602;11.418;2023-04-05T02:18:14;102116.72;;;4.14;100.00
3206;BME280;1615;53.602;11.418;2023-04-05T02:20:40;102121.28;;;4.20;100.00
3206;BME280;1615;53.602;11.418;2023-04-05T02:23:05;102115.06;;;4.13;100.00
3206;BME280;1615;53.602;11.418;2023-04-05T02:25:32;101957.94;;;3.12;100.00
3206;BME280;1615;53.602;11.418;2023-04-05T02:27:57;102114.88;;;4.08;100.00
3206;BME280;1615;53.602;11.418;2023-04-05T02:30:23;102123.81;;;4.15;100.00
3206;BME280;1615;53.602;11.418;2023-04-05T02:32:48;102120.06;;;4.16;100.00
3206;BME280;1615;53.602;11.418;2023-04-05T02:35:13;102119.44;;;4.14;100.00
3206;BME280;1615;53.602;11.418;2023-04-05T02:37:41;102118.38;;;4.15;100.00
3206;BME280;1615;53.602;11.418;2023-04-05T02:40:07;102116.72;;;4.14;100.00
3206;BME280;1615;53.602;11.418;2023-04-05T02:42:34;102109.03;;;4.11;100.00
3206;BME280;1615;53.602;11.418;2023-04-05T02:44:59;102113.81;;;4.09;100.00
3206;BME280;1615;53.602;11.418;2023-04-05T02:47:25;102115.47;;;4.10;100.00
3206;BME280;1615;53.602;11.418;2023-04-05T02:49:50;102114.91;;;4.01;100.00
3206;BME280;1615;53.602;11.418;2023-04-05T02:52:15;102109.38;;;3.90;100.00
3206;BME280;1615;53.602;11.418;2023-04-05T02:54:41;102108.59;;;3.76;100.00
3206;BME280;1615;53.602;11.418;2023-04-05T02:57:07;102106.50;;;3.72;100.00
3206;BME280;1615;53.602;11.418;2023-04-05T02:59:36;102105.91;;;3.70;100.00
3206;BME280;1615;53.602;11.418;2023-04-05T03:02:02;102109.84;;;3.74;100.00
3206;BME280;1615;53.602;11.418;2023-04-05T03:04:27;102112.81;;;3.59;100.00
3206;BME280;1615;53.602;11.418;2023-04-05T03:06:53;102107.25;;;3.48;100.00
3206;BME280;1615;53.602;11.418;2023-04-05T03:09:21;102113.69;;;3.53;100.00
3206;BME280;1615;53.602;11.418;2023-04-05T03:11:46;102109.47;;;3.64;100.00
3206;BME280;1615;53.602;11.418;2023-04-05T03:14:11;102101.09;;;3.72;100.00
3206;BME280;1615;53.602;11.418;2023-04-05T03:16:37;102107.34;;;3.72;100.00
3206;BME280;1615;53.602;11.418;2023-04-05T03:19:05;102120.72;;;3.67;100.00
3206;BME280;1615;53.602;11.418;2023-04-05T03:21:31;102104.53;;;3.48;100.00
3206;BME280;1615;53.602;11.418;2023-04-05T03:23:58;102133.78;;;3.33;100.00
3206;BME280;1615;53.602;11.418;2023-04-05T03:26:24;102097.53;;;3.21;100.00
3206;BME280;1615;53.602;11.418;2023-04-05T03:28:49;102098.34;;;3.28;100.00
3206;BME280;1615;53.602;11.418;2023-04-05T03:31:15;101629.94;;;0.56;100.00
3206;BME280;1615;53.602;11.418;2023-04-05T03:33:41;102096.41;;;3.48;100.00
3206;BME280;1615;53.602;11.418;2023-04-05T03:36:07;102095.41;;;3.36;100.00
3206;BME280;1615;53.602;11.418;2023-04-05T03:38:33;102087.97;;;3.18;100.00
3206;BME280;1615;53.602;11.418;2023-04-05T03:40:58;102096.50;;;3.09;100.00
3206;BME280;1615;53.602;11.418;2023-04-05T03:43:23;102092.59;;;3.05;100.00
3206;BME280;1615;53.602;11.418;2023-04-05T03:45:49;102089.22;;;3.03;100.00
3206;BME280;1615;53.602;11.418;2023-04-05T03:48:14;101955.50;;;2.14;100.00
3206;BME280;1615;53.602;11.418;2023-04-05T03:50:44;102090.53;;;2.94;100.00
3206;BME280;1615;53.602;11.418;2023-04-05T03:53:09;102038.06;;;2.69;100.00
3206;BME280;1615;53.602;11.418;2023-04-05T03:55:35;102091.69;;;3.24;100.00
3206;BME280;1615;53.602;11.418;2023-04-05T03:58:00;102092.25;;;3.39;100.00
3206;BME280;1615;53.602;11.418;2023-04-05T04:00:26;102083.72;;;3.35;100.00
3206;BME280;1615;53.602;11.418;2023-04-05T04:02:51;102082.50;;;3.31;100.00
3206;BME280;1615;53.602;11.418;2023-04-05T04:05:17;102084.59;;;3.23;100.00
3206;BME280;1615;53.602;11.418;2023-04-05T04:07:43;102084.19;;;3.26;100.00
3206;BME280;1615;53.602;11.418;2023-04-05T04:10:10;102057.72;;;3.21;100.00
3206;BME280;1615;53.602;11.418;2023-04-05T04:12:36;102079.50;;;3.46;100.00
3206;BME280;1615;53.602;11.418;2023-04-05T04:15:02;102079.69;;;3.51;100.00
3206;BME280;1615;53.602;11.418;2023-04-05T04:17:34;102083.09;;;3.40;100.00
3206;BME280;1615;53.602;11.418;2023-04-05T04:19:59;102084.41;;;3.24;100.00
3206;BME280;1615;53.602;11.418;2023-04-05T04:22:26;102076.72;;;3.15;100.00
3206;BME280;1615;53.602;11.418;2023-04-05T04:25:00;102075.03;;;3.20;100.00
3206;BME280;1615;53.602;11.418;2023-04-05T04:27:30;102084.22;;;3.13;100.00
3206;BME280;1615;53.602;11.418;2023-04-05T04:29:55;102062.19;;;2.90;100.00
3206;BME280;1615;53.602;11.418;2023-04-05T04:32:27;102083.00;;;2.89;100.00
3206;BME280;1615;53.602;11.418;2023-04-05T04:35:13;102110.13;;;2.83;100.00
3206;BME280;1615;53.602;11.418;2023-04-05T04:37:50;102084.91;;;2.82;100.00
3206;BME280;1615;53.602;11.418;2023-04-05T04:40:17;102083.84;;;2.77;100.00
3206;BME280;1615;53.602;11.418;2023-04-05T04:42:43;101948.00;;;2.03;100.00
3206;BME280;1615;53.602;11.418;2023-04-05T04:45:15;101925.34;;;1.85;100.00
3206;BME280;1615;53.602;11.418;2023-04-05T04:47:42;101979.84;;;2.08;100.00
3206;BME280;1615;53.602;11.418;2023-04-05T04:50:08;102087.19;;;2.66;100.00
3206;BME280;1615;53.602;11.418;2023-04-05T04:52:34;102084.72;;;2.58;100.00
3206;BME280;1615;53.602;11.418;2023-04-05T04:54:59;102078.47;;;2.64;100.00
3206;BME280;1615;53.602;11.418;2023-04-05T04:57:27;102081.38;;;2.69;100.00
3206;BME280;1615;53.602;11.418;2023-04-05T04:59:52;102079.53;;;2.69;100.00
3206;BME280;1615;53.602;11.418;2023-04-05T05:02:17;102073.88;;;2.77;100.00
3206;BME280;1615;53.602;11.418;2023-04-05T05:04:47;102077.63;;;2.70;100.00
3206;BME280;1615;53.602;11.418;2023-04-05T05:07:12;102065.34;;;2.61;100.00
3206;BME280;1615;53.602;11.418;2023-04-05T05:09:37;102074.50;;;2.60;100.00
3206;BME280;1615;53.602;11.418;2023-04-05T05:12:03;102082.63;;;2.60;100.00
3206;BME280;1615;53.602;11.418;2023-04-05T05:14:28;102048.28;;;2.47;100.00
3206;BME280;1615;53.602;11.418;2023-04-05T05:16:53;102074.53;;;2.53;100.00
3206;BME280;1615;53.602;11.418;2023-04-05T05:19:23;102070.97;;;2.53;100.00
3206;BME280;1615;53.602;11.418;2023-04-05T05:21:48;102066.38;;;2.60;100.00
3206;BME280;1615;53.602;11.418;2023-04-05T05:24:14;102068.28;;;2.59;100.00
3206;BME280;1615;53.602;11.418;2023-04-05T05:26:39;102073.47;;;2.74;100.00
3206;BME280;1615;53.602;11.418;2023-04-05T05:29:05;102069.72;;;2.88;100.00
3206;BME280;1615;53.602;11.418;2023-04-05T05:31:30;102066.97;;;3.01;100.00
3206;BME280;1615;53.602;11.418;2023-04-05T05:33:57;102069.63;;;3.14;100.00
3206;BME280;1615;53.602;11.418;2023-04-05T05:36:22;102082.53;;;3.18;100.00
3206;BME280;1615;53.602;11.418;2023-04-05T05:38:50;102076.06;;;3.19;100.00
3206;BME280;1615;53.602;11.418;2023-04-05T05:41:16;102067.94;;;3.19;100.00
3206;BME280;1615;53.602;11.418;2023-04-05T05:43:42;102062.94;;;3.23;100.00
3206;BME280;1615;53.602;11.418;2023-04-05T05:46:07;102063.97;;;3.22;100.00
3206;BME280;1615;53.602;11.418;2023-04-05T05:48:32;102076.06;;;3.26;100.00
3206;BME280;1615;53.602;11.418;2023-04-05T05:50:58;102070.00;;;3.24;100.00
3206;BME280;1615;53.602;11.418;2023-04-05T05:53:33;102057.91;;;3.33;100.00
3206;BME280;1615;53.602;11.418;2023-04-05T05:55:58;102064.09;;;3.40;100.00
3206;BME280;1615;53.602;11.418;2023-04-05T05:58:24;102066.63;;;3.41;100.00
3206;BME280;1615;53.602;11.418;2023-04-05T06:00:50;102067.47;;;3.42;100.00
3206;BME280;1615;53.602;11.418;2023-04-05T06:03:15;102070.75;;;3.50;100.00
3206;BME280;1615;53.602;11.418;2023-04-05T06:05:49;102070.88;;;3.62;100.00
3206;BME280;1615;53.602;11.418;2023-04-05T06:08:15;102066.88;;;3.71;100.00
3206;BME280;1615;53.602;11.418;2023-04-05T06:10:40;101981.00;;;3.27;100.00
3206;BME280;1615;53.602;11.418;2023-04-05T06:13:06;102064.28;;;3.89;100.00
3206;BME280;1615;53.602;11.418;2023-04-05T06:15:31;102061.91;;;3.99;100.00
3206;BME280;1615;53.602;11.418;2023-04-05T06:17:56;102061.00;;;4.11;100.00
3206;BME280;1615;53.602;11.418;2023-04-05T06:20:22;102056.13;;;4.20;100.00
3206;BME280;1615;53.602;11.418;2023-04-05T06:22:47;101970.28;;;3.76;100.00
3206;BME280;1615;53.602;11.418;2023-04-05T06:25:12;101884.38;;;3.15;100.00
3206;BME280;1615;53.602;11.418;2023-04-05T06:27:38;102055.72;;;4.23;100.00
3206;BME280;1615;53.602;11.418;2023-04-05T06:30:03;102051.00;;;4.36;100.00
3206;BME280;1615;53.602;11.418;2023-04-05T06:32:29;102024.28;;;4.33;100.00
3206;BME280;1615;53.602;11.418;2023-04-05T06:34:58;102050.84;;;4.56;100.00
3206;BME280;1615;53.602;11.418;2023-04-05T06:37:24;101998.50;;;4.49;100.00
3206;BME280;1615;53.602;11.418;2023-04-05T06:39:49;102043.41;;;4.87;100.00
3206;BME280;1615;53.602;11.418;2023-04-05T06:42:15;102000.09;;;4.74;100.00
3206;BME280;1615;53.602;11.418;2023-04-05T06:44:40;102034.59;;;5.10;100.00
3206;BME280;1615;53.602;11.418;2023-04-05T06:47:05;102005.25;;;5.00;100.00
3206;BME280;1615;53.602;11.418;2023-04-05T06:49:31;102010.38;;;5.08;100.00
3206;BME280;1615;53.602;11.418;2023-04-05T06:51:56;102026.22;;;5.29;100.00
3206;BME280;1615;53.602;11.418;2023-04-05T06:54:21;102026.13;;;5.36;100.00
3206;BME280;1615;53.602;11.418;2023-04-05T06:56:48;102018.56;;;5.38;100.00
3206;BME280;1615;53.602;11.418;2023-04-05T06:59:13;102013.41;;;5.48;100.00
3206;BME280;1615;53.602;11.418;2023-04-05T07:01:39;102013.34;;;5.54;100.00
3206;BME280;1615;53.602;11.418;2023-04-05T07:04:04;102006.53;;;5.63;100.00
3206;BME280;1615;53.602;11.418;2023-04-05T07:06:30;102003.84;;;5.75;100.00
3206;BME280;1615;53.602;11.418;2023-04-05T07:09:01;102003.22;;;5.91;100.00
3206;BME280;1615;53.602;11.418;2023-04-05T07:11:28;102007.97;;;6.07;100.00
3206;BME280;1615;53.602;11.418;2023-04-05T07:13:56;102010.63;;;6.25;100.00
3206;BME280;1615;53.602;11.418;2023-04-05T07:16:22;102006.63;;;6.39;100.00
3206;BME280;1615;53.602;11.418;2023-04-05T07:18:48;102011.84;;;6.52;100.00
3206;BME280;1615;53.602;11.418;2023-04-05T07:21:13;101977.59;;;6.33;100.00
3206;BME280;1615;53.602;11.418;2023-04-05T07:23:39;101979.38;;;6.39;100.00
3206;BME280;1615;53.602;11.418;2023-04-05T07:26:04;102016.81;;;6.66;100.00
3206;BME280;1615;53.602;11.418;2023-04-05T07:28:31;101987.47;;;6.57;100.00
3206;BME280;1615;53.602;11.418;2023-04-05T07:31:00;102003.44;;;6.88;100.00
3206;BME280;1615;53.602;11.418;2023-04-05T07:33:25;101858.50;;;6.17;100.00
3206;BME280;1615;53.602;11.418;2023-04-05T07:35:54;101978.63;;;7.01;100.00
3206;BME280;1615;53.602;11.418;2023-04-05T07:38:21;102011.03;;;7.37;100.00
3206;BME280;1615;53.602;11.418;2023-04-05T07:40:50;102014.06;;;7.52;100.00
3206;BME280;1615;53.602;11.418;2023-04-05T07:43:17;102009.97;;;7.66;100.00
3206;BME280;1615;53.602;11.418;2023-04-05T07:45:42;101903.41;;;7.16;100.00
3206;BME280;1615;53.602;11.418;2023-04-05T07:48:08;102009.84;;;7.89;100.00
3206;BME280;1615;53.602;11.418;2023-04-05T07:50:33;102014.28;;;8.06;100.00
3206;BME280;1615;53.602;11.418;2023-04-05T07:53:00;101926.44;;;7.65;97.03
3206;BME280;1615;53.602;11.418;2023-04-05T07:55:25;101942.19;;;7.91;94.39
3206;BME280;1615;53.602;11.418;2023-04-05T07:57:53;102000.34;;;8.36;94.48
3206;BME280;1615;53.602;11.418;2023-04-05T08:00:19;102014.25;;;8.51;96.51
3206;BME280;1615;53.602;11.418;2023-04-05T08:02:45;101955.97;;;8.29;94.73
3206;BME280;1615;53.602;11.418;2023-04-05T08:05:10;101999.75;;;8.67;93.95
3206;BME280;1615;53.602;11.418;2023-04-05T08:07:36;101995.44;;;8.71;93.82
3206;BME280;1615;53.602;11.418;2023-04-05T08:10:02;101807.69;;;7.62;92.02
3206;BME280;1615;53.602;11.418;2023-04-05T08:12:29;101999.97;;;8.82;92.59
3206;BME280;1615;53.602;11.418;2023-04-05T08:14:54;102002.84;;;8.92;91.59
3206;BME280;1615;53.602;11.418;2023-04-05T08:17:19;101949.59;;;8.78;88.17
3206;BME280;1615;53.602;11.418;2023-04-05T08:19:45;101977.03;;;9.04;90.13
3206;BME280;1615;53.602;11.418;2023-04-05T08:22:10;101984.94;;;9.22;90.54
3206;BME280;1615;53.602;11.418;2023-04-05T08:24:36;101979.78;;;9.26;88.82
3206;BME280;1615;53.602;11.418;2023-04-05T08:27:01;101980.75;;;9.36;88.83
3206;BME280;1615;53.602;11.418;2023-04-05T08:29:26;101984.03;;;9.60;90.33
3206;BME280;1615;53.602;11.418;2023-04-05T08:31:51;101936.72;;;9.43;89.41
3206;BME280;1615;53.602;11.418;2023-04-05T08:34:20;101991.34;;;9.81;90.34
3206;BME280;1615;53.602;11.418;2023-04-05T08:36:45;101986.50;;;9.88;91.55
3206;BME280;1615;53.602;11.418;2023-04-05T08:39:10;101991.63;;;10.06;91.74
3206;BME280;1615;53.602;11.418;2023-04-05T08:41:40;101979.56;;;10.07;88.69
3206;BME280;1615;53.602;11.418;2023-04-05T08:44:08;101963.91;;;10.02;87.98
3206;BME280;1615;53.602;11.418;2023-04-05T08:46:34;101980.84;;;10.26;87.77
3206;BME280;1615;53.602;11.418;2023-04-05T08:49:06;101974.53;;;10.25;85.14
3206;BME280;1615;53.602;11.418;2023-04-05T08:51:32;101980.91;;;10.31;84.38
3206;BME280;1615;53.602;11.418;2023-04-05T08:53:58;101973.06;;;10.44;85.19
3206;BME280;1615;53.602;11.418;2023-04-05T08:56:30;101961.78;;;10.41;84.02
3206;BME280;1615;53.602;11.418;2023-04-05T08:59:04;101976.34;;;10.46;82.56
3206;BME280;1615;53.602;11.418;2023-04-05T09:01:32;101977.53;;;10.55;84.46
3206;BME280;1615;53.602;11.418;2023-04-05T09:04:01;101975.03;;;10.54;84.39
3206;BME280;1615;53.602;11.418;2023-04-05T09:06:29;101970.66;;;10.53;85.06
3206;BME280;1615;53.602;11.418;2023-04-05T09:08:56;101938.13;;;10.30;82.33
3206;BME280;1615;53.602;11.418;2023-04-05T09:11:22;101971.78;;;10.57;84.16
3206;BME280;1615;53.602;11.418;2023-04-05T09:13:48;101973.50;;;10.68;82.65
3206;BME280;1615;53.602;11.418;2023-04-05T09:16:15;101776.53;;;9.67;79.79
3206;BME280;1615;53.602;11.418;2023-04-05T09:18:41;101861.31;;;10.20;74.59
3206;BME280;1615;53.602;11.418;2023-04-05T09:21:06;101956.84;;;10.84;70.62
3206;BME280;1615;53.602;11.418;2023-04-05T09:23:35;101958.25;;;10.92;72.12
3206;BME280;1615;53.602;11.418;2023-04-05T09:26:20;101951.19;;;11.01;74.15
3206;BME280;1615;53.602;11.418;2023-04-05T09:28:46;101954.75;;;11.01;70.11
3206;BME280;1615;53.602;11.418;2023-04-05T09:34:03;101942.84;;;10.81;71.32
3206;BME280;1615;53.602;11.418;2023-04-05T09:36:29;101945.53;;;10.71;70.79
3206;BME280;1615;53.602;11.418;2023-04-05T09:39:04;101942.09;;;10.49;73.07
3206;BME280;1615;53.602;11.418;2023-04-05T09:41:31;101941.59;;;10.52;73.38
3206;BME280;1615;53.602;11.418;2023-04-05T09:43:56;101945.41;;;10.51;73.27
3206;BME280;1615;53.602;11.418;2023-04-05T09:46:33;101935.56;;;10.55;72.67
3206;BME280;1615;53.602;11.418;2023-04-05T09:48:59;101935.56;;;10.55;73.36
3206;BME280;1615;53.602;11.418;2023-04-05T09:51:34;101924.66;;;10.65;76.41
3206;BME280;1615;53.602;11.418;2023-04-05T09:56:37;101925.88;;;10.89;74.73
3206;BME280;1615;53.602;11.418;2023-04-05T09:59:10;101930.06;;;11.01;73.92
3206;BME280;1615;53.602;11.418;2023-04-05T10:01:42;101921.31;;;11.09;74.42
3206;BME280;1615;53.602;11.418;2023-04-05T10:04:08;101922.72;;;11.17;73.93
3206;BME280;1615;53.602;11.418;2023-04-05T10:06:43;101821.03;;;10.82;77.54
3206;BME280;1615;53.602;11.418;2023-04-05T10:09:10;101865.09;;;11.22;78.06
3206;BME280;1615;53.602;11.418;2023-04-05T10:11:37;101906.94;;;11.59;75.77
3206;BME280;1615;53.602;11.418;2023-04-05T10:14:05;101912.44;;;11.59;77.07
3206;BME280;1615;53.602;11.418;2023-04-05T10:16:35;101910.25;;;11.86;75.45
3206;BME280;1615;53.602;11.418;2023-04-05T10:19:04;101909.69;;;12.04;79.74
3206;BME280;1615;53.602;11.418;2023-04-05T10:21:33;101900.34;;;12.05;79.10
3206;BME280;1615;53.602;11.418;2023-04-05T10:24:26;101897.06;;;11.98;78.28
3206;BME280;1615;53.602;11.418;2023-04-05T10:27:05;101900.38;;;11.90;78.44
3206;BME280;1615;53.602;11.418;2023-04-05T10:30:07;101903.13;;;11.95;78.10
3206;BME280;1615;53.602;11.418;2023-04-05T10:32:44;101896.53;;;12.01;75.24
3206;BME280;1615;53.602;11.418;2023-04-05T10:35:16;101892.09;;;12.05;74.36
3206;BME280;1615;53.602;11.418;2023-04-05T10:40:31;101812.13;;;11.46;74.50
3206;BME280;1615;53.602;11.418;2023-04-05T10:42:57;101855.84;;;11.78;79.58
3206;BME280;1615;53.602;11.418;2023-04-05T10:45:26;101873.44;;;11.87;77.57
3206;BME280;1615;53.602;11.418;2023-04-05T10:47:58;101881.13;;;11.85;76.43
3206;BME280;1615;53.602;11.418;2023-04-05T10:50:27;101839.06;;;11.49;76.40
3206;BME280;1615;53.602;11.418;2023-04-05T10:52:52;101886.63;;;11.85;80.58
3206;BME280;1615;53.602;11.418;2023-04-05T10:55:19;101856.94;;;11.67;82.18
3206;BME280;1615;53.602;11.418;2023-04-05T10:57:46;101869.88;;;11.81;81.61
3206;BME280;1615;53.602;11.418;2023-04-05T11:00:15;101875.66;;;11.85;78.65
3206;BME280;1615;53.602;11.418;2023-04-05T11:02:42;101872.91;;;11.90;78.83
3206;BME280;1615;53.602;11.418;2023-04-05T11:05:28;101877.81;;;11.83;80.89
3206;BME280;1615;53.602;11.418;2023-04-05T11:07:59;101866.56;;;11.74;79.20
3206;BME280;1615;53.602;11.418;2023-04-05T11:10:26;101872.03;;;11.59;83.54
3206;BME280;1615;53.602;11.418;2023-04-05T11:20:39;101935.97;;;11.50;79.11
3206;BME280;1615;53.602;11.418;2023-04-05T11:23:06;101847.28;;;11.44;76.10
3206;BME280;1615;53.602;11.418;2023-04-05T11:25:36;101850.88;;;11.55;77.53
3206;BME280;1615;53.602;11.418;2023-04-05T11:28:03;101857.50;;;11.64;76.84
3206;BME280;1615;53.602;11.418;2023-04-05T11:30:45;101736.06;;;11.12;80.61
3206;BME280;1615;53.602;11.418;2023-04-05T11:33:10;101847.59;;;11.88;80.07
3206;BME280;1615;53.602;11.418;2023-04-05T11:35:38;101836.59;;;11.88;79.25
3206;BME280;1615;53.602;11.418;2023-04-05T11:40:32;101844.00;;;12.02;86.25
3206;BME280;1615;53.602;11.418;2023-04-05T11:43:02;101843.19;;;12.07;86.90
3206;BME280;1615;53.602;11.418;2023-04-05T11:45:30;101837.97;;;12.15;81.93
3206;BME280;1615;53.602;11.418;2023-04-05T11:48:04;101789.63;;;11.89;85.56
3206;BME280;1615;53.602;11.418;2023-04-05T11:50:30;101700.91;;;11.49;81.78
3206;BME280;1615;53.602;11.418;2023-04-05T11:55:41;101832.66;;;12.49;78.10
3206;BME280;1615;53.602;11.418;2023-04-05T11:58:23;101832.09;;;12.47;74.73
3206;BME280;1615;53.602;11.418;2023-04-05T12:01:00;101816.69;;;12.46;72.90
3206;BME280;1615;53.602;11.418;2023-04-05T12:03:26;101803.78;;;12.51;73.73
3206;BME280;1615;53.602;11.418;2023-04-05T12:05:56;101814.13;;;12.74;73.54
3206;BME280;1615;53.602;11.418;2023-04-05T12:08:22;101814.44;;;12.58;72.45
3206;BME280;1615;53.602;11.418;2023-04-05T12:10:57;101700.34;;;11.72;72.08
3206;BME280;1615;53.602;11.418;2023-04-05T12:13:29;101814.63;;;11.98;72.76
3206;BME280;1615;53.602;11.418;2023-04-05T12:15:57;101808.06;;;11.74;74.44
3206;BME280;1615;53.602;11.418;2023-04-05T12:18:24;101787.16;;;11.53;74.98
3206;BME280;1615;53.602;11.418;2023-04-05T12:20:51;101785.78;;;11.50;73.05
3206;BME280;1615;53.602;11.418;2023-04-05T12:23:17;101803.66;;;11.63;77.46
3206;BME280;1615;53.602;11.418;2023-04-05T12:25:48;101706.41;;;11.09;81.32
3206;BME280;1615;53.602;11.418;2023-04-05T12:28:13;101794.84;;;11.81;78.64
3206;BME280;1615;53.602;11.418;2023-04-05T12:30:59;101801.44;;;11.90;75.33
3206;BME280;1615;53.602;11.418;2023-04-05T12:35:51;101798.09;;;12.23;78.77
3206;BME280;1615;53.602;11.418;2023-04-05T12:38:16;101801.88;;;12.37;80.00
3206;BME280;1615;53.602;11.418;2023-04-05T12:40:42;101794.41;;;12.52;80.85
3206;BME280;1615;53.602;11.418;2023-04-05T12:43:08;101795.22;;;12.53;77.28
3206;BME280;1615;53.602;11.418;2023-04-05T12:45:34;101783.69;;;12.51;72.89
3206;BME280;1615;53.602;11.418;2023-04-05T12:48:12;101779.31;;;12.40;75.56
3206;BME280;1615;53.602;11.418;2023-04-05T12:50:42;101781.00;;;12.31;75.39
3206;BME280;1615;53.602;11.418;2023-04-05T12:53:15;101772.25;;;12.19;71.95
3206;BME280;1615;53.602;11.418;2023-04-05T12:55:54;101782.13;;;12.25;71.22
3206;BME280;1615;53.602;11.418;2023-04-05T12:58:34;101763.94;;;12.34;70.42
3206;BME280;1615;53.602;11.418;2023-04-05T13:01:02;101610.03;;;11.55;70.80
3206;BME280;1615;53.602;11.418;2023-04-05T13:03:28;101657.44;;;12.01;69.62
3206;BME280;1615;53.602;11.418;2023-04-05T13:05:53;101766.28;;;12.65;65.95
3206;BME280;1615;53.602;11.418;2023-04-05T13:08:19;101767.13;;;12.66;68.89
3206;BME280;1615;53.602;11.418;2023-04-05T13:10:45;101759.94;;;12.75;72.52
3206;BME280;1615;53.602;11.418;2023-04-05T13:13:16;101670.53;;;12.14;73.94
3206;BME280;1615;53.602;11.418;2023-04-05T13:15:42;101766.72;;;12.82;74.66
3206;BME280;1615;53.602;11.418;2023-04-05T13:18:08;101761.22;;;12.82;73.23
3206;BME280;1615;53.602;11.418;2023-04-05T13:20:34;101759.56;;;12.86;71.76
3206;BME280;1615;53.602;11.418;2023-04-05T13:22:59;101761.47;;;12.91;69.92
3206;BME280;1615;53.602;11.418;2023-04-05T13:25:25;101755.41;;;12.99;66.71
3206;BME280;1615;53.602;11.418;2023-04-05T13:27:50;101689.50;;;12.69;64.21
3206;BME280;1615;53.602;11.418;2023-04-05T13:30:16;101748.19;;;13.08;62.68
3206;BME280;1615;53.602;11.418;2023-04-05T13:32:42;101737.09;;;13.18;60.55
3206;BME280;1615;53.602;11.418;2023-04-05T13:35:08;101737.09;;;13.18;58.14